createdAt,value
2019-03-11T00:02:15.670Z,48.99
2019-03-11T00:04:44.288Z,49.17
2019-03-11T00:07:12.300Z,49.00
2019-03-11T00:09:40.372Z,49.36
2019-03-11T00:12:08.570Z,48.92
2019-03-11T00:14:36.667Z,49.26
2019-03-11T00:17:04.692Z,49.95
2019-03-11T00:19:32.691Z,49.22
2019-03-11T00:22:00.698Z,49.75
2019-03-11T00:24:28.685Z,49.43
2019-03-11T00:26:56.805Z,49.38
2019-03-11T00:29:24.924Z,49.75
2019-03-11T00:31:52.991Z,50.03
2019-03-11T00:34:21.276Z,50.08
2019-03-11T00:36:49.519Z,49.70
2019-03-11T00:39:17.679Z,49.68
2019-03-11T00:41:45.803Z,49.40
2019-03-11T00:44:13.888Z,48.95
2019-03-11T00:46:42.028Z,48.87
2019-03-11T00:49:10.027Z,49.24
2019-03-11T00:51:38.026Z,49.58
2019-03-11T00:54:06.228Z,49.02
2019-03-11T00:56:35.362Z,49.38
2019-03-11T00:59:03.281Z,49.90
2019-03-11T01:01:31.309Z,49.58
2019-03-11T01:03:59.334Z,49.69
2019-03-11T01:06:27.391Z,49.69
2019-03-11T01:08:55.450Z,49.88
2019-03-11T01:11:23.550Z,50.27
2019-03-11T01:13:51.760Z,49.82
2019-03-11T01:16:19.701Z,49.81
2019-03-11T01:18:47.909Z,50.21
2019-03-11T01:21:16.225Z,49.88
2019-03-11T01:23:44.232Z,50.28
2019-03-11T01:26:12.976Z,50.02
2019-03-11T01:28:41.384Z,50.34
2019-03-11T01:31:09.694Z,49.90
2019-03-11T01:33:37.729Z,50.11
2019-03-11T01:36:05.786Z,50.87
2019-03-11T01:38:33.754Z,50.27
2019-03-11T01:41:01.983Z,51.08
2019-03-11T01:43:30.413Z,50.68
2019-03-11T01:45:58.775Z,50.64
2019-03-11T01:48:26.879Z,51.06
2019-03-11T01:50:55.879Z,50.97
2019-03-11T01:53:23.940Z,51.61
2019-03-11T01:55:52.050Z,51.45
2019-03-11T01:58:20.000Z,51.17
2019-03-11T02:00:48.084Z,51.70
2019-03-11T02:03:16.122Z,51.87
2019-03-11T02:05:44.465Z,51.55
2019-03-11T02:08:12.866Z,51.38
2019-03-11T02:10:40.807Z,51.44
2019-03-11T02:13:09.832Z,51.54
2019-03-11T02:15:38.192Z,51.63
2019-03-11T02:18:06.623Z,51.99
2019-03-11T02:20:34.749Z,51.75
2019-03-11T02:23:02.811Z,51.79
2019-03-11T02:25:30.909Z,51.63
2019-03-11T02:27:58.943Z,51.67
2019-03-11T02:30:27.053Z,51.64
2019-03-11T02:32:55.050Z,51.68
2019-03-11T02:35:28.199Z,51.82
2019-03-11T02:37:56.634Z,52.15
2019-03-11T02:40:25.188Z,52.47
2019-03-11T02:42:53.183Z,52.52
2019-03-11T02:45:21.561Z,52.77
2019-03-11T02:47:49.601Z,52.93
2019-03-11T02:50:17.646Z,52.27
2019-03-11T02:52:45.621Z,52.17
2019-03-11T02:55:13.675Z,52.92
2019-03-11T02:57:42.061Z,52.69
2019-03-11T03:00:11.478Z,53.02
2019-03-11T03:02:49.918Z,53.20
2019-03-11T03:05:24.610Z,53.29
2019-03-11T03:07:52.709Z,53.10
2019-03-11T03:10:20.694Z,53.07
2019-03-11T03:12:48.687Z,53.10
2019-03-11T03:15:17.989Z,53.55
2019-03-11T03:17:46.284Z,53.29
2019-03-11T03:20:14.305Z,53.11
2019-03-11T03:22:42.401Z,53.18
2019-03-11T03:25:10.703Z,53.54
2019-03-11T03:27:38.972Z,53.41
2019-03-11T03:30:11.372Z,53.51
2019-03-11T03:32:39.384Z,53.59
2019-03-11T03:35:07.417Z,54.17
2019-03-11T03:37:35.677Z,53.58
2019-03-11T03:40:04.753Z,53.48
2019-03-11T03:42:32.940Z,53.50
2019-03-11T03:45:21.444Z,53.62
2019-03-11T03:47:49.791Z,53.91
2019-03-11T03:50:17.896Z,53.95
2019-03-11T03:52:45.909Z,54.24
2019-03-11T03:55:14.597Z,54.32
2019-03-11T03:57:44.423Z,54.73
2019-03-11T04:00:12.527Z,56.14
2019-03-11T04:02:40.517Z,56.42
2019-03-11T04:05:08.698Z,56.78
2019-03-11T04:07:36.755Z,58.66
2019-03-11T04:10:06.562Z,59.83
2019-03-11T04:12:34.733Z,61.07
2019-03-11T04:15:02.938Z,62.54
2019-03-11T04:17:30.992Z,62.78
2019-03-11T04:19:59.734Z,63.23
2019-03-11T04:22:28.058Z,63.48
2019-03-11T04:24:56.180Z,64.19
2019-03-11T04:27:25.254Z,63.77
2019-03-11T04:29:53.295Z,64.48
2019-03-11T04:32:21.233Z,64.58
2019-03-11T04:34:49.778Z,64.64
2019-03-11T04:37:17.950Z,65.38
2019-03-11T04:39:45.967Z,65.50
2019-03-11T04:42:14.113Z,65.92
2019-03-11T04:44:42.108Z,65.62
2019-03-11T04:47:10.153Z,65.86
2019-03-11T04:49:38.219Z,66.94
2019-03-11T04:52:07.408Z,67.37
2019-03-11T04:54:35.545Z,67.97
2019-03-11T04:57:03.885Z,68.06
2019-03-11T04:59:32.935Z,68.31
2019-03-11T05:02:00.937Z,68.75
2019-03-11T05:04:28.938Z,68.33
2019-03-11T05:06:57.101Z,68.34
2019-03-11T05:09:25.062Z,68.13
2019-03-11T05:11:53.054Z,68.34
2019-03-11T05:14:21.604Z,68.44
2019-03-11T05:16:49.953Z,68.70
2019-03-11T05:19:18.479Z,68.49
2019-03-11T05:21:46.459Z,68.28
2019-03-11T05:24:14.469Z,68.43
2019-03-11T05:26:43.851Z,68.30
2019-03-11T05:29:11.811Z,68.74
2019-03-11T05:31:39.893Z,68.94
2019-03-11T05:34:08.018Z,69.39
2019-03-11T05:36:36.089Z,69.28
2019-03-11T05:39:06.915Z,69.64
2019-03-11T05:41:35.323Z,70.23
2019-03-11T05:44:05.282Z,70.23
2019-03-11T05:46:35.509Z,70.93
2019-03-11T05:49:03.831Z,70.53
2019-03-11T05:51:32.227Z,69.71
2019-03-11T05:54:00.518Z,69.67
2019-03-11T05:56:28.478Z,69.15
2019-03-11T05:58:57.420Z,68.17
2019-03-11T06:01:25.410Z,65.42
2019-03-11T06:03:53.418Z,61.98
2019-03-11T06:06:21.404Z,61.84
2019-03-11T06:08:49.808Z,61.10
2019-03-11T06:11:17.791Z,60.04
2019-03-11T06:13:46.145Z,59.48
2019-03-11T06:16:14.141Z,59.42
2019-03-11T06:18:50.817Z,59.37
2019-03-11T06:21:27.666Z,59.27
2019-03-11T06:23:55.693Z,59.45
2019-03-11T06:26:23.658Z,59.38
2019-03-11T06:28:51.951Z,59.14
2019-03-11T06:31:19.945Z,59.60
2019-03-11T06:33:48.307Z,59.65
2019-03-11T06:36:16.373Z,59.87
2019-03-11T06:38:45.682Z,60.06
2019-03-11T06:41:13.710Z,60.33
2019-03-11T06:43:41.797Z,60.05
2019-03-11T06:46:10.502Z,59.88
2019-03-11T06:48:38.765Z,60.15
2019-03-11T06:51:06.802Z,59.82
2019-03-11T06:53:34.969Z,59.76
2019-03-11T06:56:02.954Z,59.65
2019-03-11T06:58:30.941Z,59.60
2019-03-11T07:00:59.060Z,59.75
2019-03-11T07:03:27.396Z,59.74
2019-03-11T07:05:55.519Z,59.34
2019-03-11T07:08:23.565Z,59.31
2019-03-11T07:10:51.726Z,59.26
2019-03-11T07:13:20.252Z,58.81
2019-03-11T07:15:48.315Z,58.33
2019-03-11T07:18:16.293Z,58.42
2019-03-11T07:20:44.327Z,57.97
2019-03-11T07:23:12.424Z,56.89
2019-03-11T07:25:40.504Z,57.09
2019-03-11T07:28:08.919Z,56.86
2019-03-11T07:30:36.900Z,55.95
2019-03-11T07:33:06.955Z,56.41
2019-03-11T07:35:35.525Z,55.67
2019-03-11T07:38:03.855Z,55.02
2019-03-11T07:40:31.939Z,55.54
2019-03-11T07:43:00.237Z,54.87
2019-03-11T07:45:28.287Z,54.85
2019-03-11T07:47:56.673Z,54.76
2019-03-11T07:50:24.697Z,54.83
2019-03-11T07:52:52.723Z,55.29
2019-03-11T07:55:20.709Z,58.09
2019-03-11T07:57:48.686Z,66.83
2019-03-11T08:00:16.738Z,69.94
2019-03-11T08:02:44.791Z,70.95
2019-03-11T08:05:12.919Z,71.09
2019-03-11T08:08:00.071Z,70.77
2019-03-11T08:10:41.103Z,69.29
2019-03-11T08:13:11.959Z,68.55
2019-03-11T08:15:44.769Z,67.70
2019-03-11T08:18:15.591Z,65.97
2019-03-11T08:20:46.062Z,67.14
2019-03-11T08:23:14.069Z,67.18
2019-03-11T08:25:42.171Z,67.36
2019-03-11T08:28:10.242Z,67.44
2019-03-11T08:30:38.828Z,66.90
2019-03-11T08:33:08.211Z,67.84
2019-03-11T08:35:36.748Z,68.49
2019-03-11T08:38:05.508Z,68.32
2019-03-11T08:40:33.721Z,68.59
2019-03-11T08:43:01.807Z,68.33
2019-03-11T08:45:29.914Z,67.42
2019-03-11T08:47:58.020Z,66.60
2019-03-11T08:50:25.991Z,64.39
2019-03-11T08:52:54.772Z,62.71
2019-03-11T08:55:22.771Z,60.72
2019-03-11T08:57:50.820Z,59.73
2019-03-11T09:00:18.921Z,59.69
2019-03-11T09:02:46.956Z,58.69
2019-03-11T09:05:14.949Z,57.42
2019-03-11T09:07:43.179Z,57.87
2019-03-11T09:10:12.743Z,57.24
2019-03-11T09:12:40.888Z,55.89
2019-03-11T09:15:11.114Z,54.36
2019-03-11T09:17:39.225Z,53.66
2019-03-11T09:20:08.683Z,54.16
2019-03-11T09:22:36.926Z,54.05
2019-03-11T09:25:06.831Z,53.31
2019-03-11T09:27:35.632Z,53.05
2019-03-11T09:30:05.304Z,52.92
2019-03-11T09:32:34.558Z,51.83
2019-03-11T09:35:03.917Z,52.26
2019-03-11T09:37:32.388Z,51.74
2019-03-11T09:40:00.940Z,50.92
2019-03-11T09:42:29.690Z,50.51
2019-03-11T09:44:57.719Z,49.73
2019-03-11T09:47:28.386Z,48.97
2019-03-11T09:49:58.348Z,48.20
2019-03-11T09:52:26.513Z,48.66
2019-03-11T09:54:54.865Z,49.50
2019-03-11T09:57:23.276Z,48.78
2019-03-11T09:59:51.359Z,48.35
2019-03-11T10:02:19.422Z,49.64
2019-03-11T10:04:47.514Z,49.20
2019-03-11T10:07:15.805Z,49.52
2019-03-11T10:09:44.428Z,49.32
2019-03-11T10:12:12.495Z,48.93
2019-03-11T10:14:40.829Z,48.96
2019-03-11T10:17:09.522Z,48.77
2019-03-11T10:19:37.503Z,48.99
2019-03-11T10:22:05.765Z,47.74
2019-03-11T10:24:33.976Z,47.28
2019-03-11T10:27:02.324Z,46.97
2019-03-11T10:29:30.485Z,44.59
2019-03-11T10:31:58.591Z,44.67
2019-03-11T10:34:26.664Z,44.84
2019-03-11T10:36:55.284Z,44.10
2019-03-11T10:39:23.588Z,44.63
2019-03-11T10:41:51.996Z,45.47
2019-03-11T10:44:21.813Z,44.59
2019-03-11T10:46:49.938Z,45.75
2019-03-11T10:49:21.727Z,45.73
2019-03-11T10:51:50.014Z,46.40
2019-03-11T10:54:18.720Z,45.38
2019-03-11T10:56:47.570Z,46.16
2019-03-11T10:59:15.950Z,45.89
2019-03-11T11:01:44.184Z,45.72
2019-03-11T11:04:12.312Z,46.82
2019-03-11T11:06:40.970Z,45.73
2019-03-11T11:09:09.356Z,46.21
2019-03-11T11:11:37.793Z,45.38
2019-03-11T11:14:05.872Z,46.14
2019-03-11T11:16:35.066Z,46.84
2019-03-11T11:19:03.373Z,47.34
2019-03-11T11:21:31.831Z,48.98
2019-03-11T11:23:59.864Z,48.39
2019-03-11T11:26:28.259Z,49.56
2019-03-11T11:28:56.324Z,48.54
2019-03-11T11:31:26.112Z,49.77
2019-03-11T11:33:57.008Z,50.27
2019-03-11T11:36:25.686Z,51.47
2019-03-11T11:38:53.824Z,50.65
2019-03-11T11:41:21.999Z,50.47
2019-03-11T11:43:50.111Z,49.44
2019-03-11T11:46:18.172Z,48.99
2019-03-11T11:48:47.238Z,47.22
2019-03-11T11:51:16.309Z,45.63
2019-03-11T11:53:44.488Z,45.70
2019-03-11T11:56:12.657Z,44.59
2019-03-11T11:58:40.977Z,44.25
2019-03-11T12:01:09.527Z,45.00
2019-03-11T12:03:37.755Z,44.59
2019-03-11T12:06:05.763Z,45.10
2019-03-11T12:08:34.004Z,46.02
2019-03-11T12:11:02.045Z,45.02
2019-03-11T12:13:30.073Z,45.92
2019-03-11T12:15:58.356Z,46.24
2019-03-11T12:18:26.552Z,47.03
2019-03-11T12:20:54.591Z,47.39
2019-03-11T12:23:22.555Z,46.78
2019-03-11T12:25:51.349Z,47.22
2019-03-11T12:28:19.335Z,46.67
2019-03-11T12:30:47.486Z,47.31
2019-03-11T12:33:15.580Z,45.77
2019-03-11T12:35:43.901Z,46.17
2019-03-11T12:38:12.033Z,46.84
2019-03-11T12:40:40.571Z,47.20
2019-03-11T12:43:08.664Z,45.41
2019-03-11T12:45:36.783Z,45.08
2019-03-11T12:48:04.812Z,44.56
2019-03-11T12:50:33.197Z,44.66
2019-03-11T12:53:01.670Z,43.80
2019-03-11T12:55:29.915Z,43.65
2019-03-11T12:57:58.086Z,43.93
2019-03-11T13:00:26.092Z,44.15
2019-03-11T13:02:54.247Z,43.51
2019-03-11T13:05:23.989Z,44.75
2019-03-11T13:07:54.134Z,43.81
2019-03-11T13:10:22.195Z,42.58
2019-03-11T13:12:50.662Z,42.10
2019-03-11T13:15:19.089Z,41.87
2019-03-11T13:17:47.401Z,41.53
2019-03-11T13:20:36.358Z,42.56
2019-03-11T13:23:04.470Z,43.32
2019-03-11T13:25:32.892Z,41.79
2019-03-11T13:28:01.052Z,41.34
2019-03-11T13:30:29.068Z,38.79
2019-03-11T13:32:57.400Z,38.11
2019-03-11T13:35:25.438Z,35.11
2019-03-11T13:37:53.673Z,32.73
2019-03-11T13:40:21.744Z,32.82
2019-03-11T13:42:49.748Z,31.02
2019-03-11T13:45:18.593Z,32.07
2019-03-11T13:47:46.910Z,35.34
2019-03-11T13:50:14.936Z,36.38
2019-03-11T13:52:44.068Z,36.30
2019-03-11T13:55:13.435Z,39.46
2019-03-11T13:57:41.675Z,40.87
2019-03-11T14:00:10.874Z,42.03
2019-03-11T14:02:38.942Z,39.32
2019-03-11T14:05:07.252Z,37.45
2019-03-11T14:07:35.410Z,37.46
2019-03-11T14:10:04.753Z,35.20
2019-03-11T14:12:32.847Z,34.54
2019-03-11T14:15:01.009Z,36.43
2019-03-11T14:17:29.438Z,38.25
2019-03-11T14:19:57.734Z,33.92
2019-03-11T14:22:26.004Z,31.86
2019-03-11T14:24:54.341Z,32.16
2019-03-11T14:27:22.436Z,31.77
2019-03-11T14:29:50.668Z,33.66
2019-03-11T14:32:20.143Z,32.84
2019-03-11T14:34:49.501Z,36.38
2019-03-11T14:37:17.691Z,39.81
2019-03-11T14:39:45.997Z,42.26
2019-03-11T14:42:14.359Z,43.51
2019-03-11T14:44:42.754Z,43.63
2019-03-11T14:47:11.114Z,43.77
2019-03-11T14:49:41.153Z,41.09
2019-03-11T14:52:09.157Z,40.64
2019-03-11T14:54:37.243Z,42.17
2019-03-11T14:57:05.247Z,42.90
2019-03-11T14:59:33.266Z,43.69
2019-03-11T15:02:02.200Z,43.32
2019-03-11T15:04:33.376Z,36.69
2019-03-11T15:07:01.659Z,33.75
2019-03-11T15:09:29.723Z,37.32
2019-03-11T15:11:57.899Z,37.23
2019-03-11T15:14:26.274Z,40.15
2019-03-11T15:16:55.032Z,44.16
2019-03-11T15:19:23.377Z,47.42
2019-03-11T15:21:51.560Z,48.38
2019-03-11T15:24:19.589Z,48.52
2019-03-11T15:26:47.977Z,47.73
2019-03-11T15:29:19.963Z,41.64
2019-03-11T15:31:47.992Z,36.63
2019-03-11T15:34:16.218Z,31.64
2019-03-11T15:36:44.277Z,31.06
2019-03-11T15:39:12.229Z,33.56
2019-03-11T15:41:40.790Z,36.64
2019-03-11T15:44:08.843Z,39.82
2019-03-11T15:46:39.489Z,41.97
2019-03-11T15:49:07.329Z,42.38
2019-03-11T15:51:37.231Z,42.42
2019-03-11T15:54:05.445Z,44.36
2019-03-11T15:56:33.513Z,45.52
2019-03-11T15:59:01.687Z,47.16
2019-03-11T16:01:29.851Z,52.46
2019-03-11T16:03:58.135Z,64.85
2019-03-11T16:06:26.696Z,70.70
2019-03-11T16:08:55.021Z,74.15
2019-03-11T16:11:23.183Z,75.38
2019-03-11T16:13:51.631Z,69.79
2019-03-11T16:16:19.714Z,59.03
2019-03-11T16:18:47.770Z,53.64
2019-03-11T16:21:15.816Z,53.79
2019-03-11T16:23:43.845Z,57.39
2019-03-11T16:26:12.132Z,61.27
2019-03-11T16:28:47.771Z,64.89
2019-03-11T16:31:11.306Z,65.05
2019-03-11T16:33:39.526Z,66.22
2019-03-11T16:36:07.556Z,66.37
2019-03-11T16:38:35.779Z,65.68
2019-03-11T16:41:04.152Z,66.30
2019-03-11T16:43:32.831Z,66.45
2019-03-11T16:46:01.395Z,66.25
2019-03-11T16:48:29.761Z,66.59
2019-03-11T16:50:57.940Z,65.59
2019-03-11T16:53:26.004Z,65.64
2019-03-11T16:55:55.925Z,64.54
2019-03-11T16:58:24.190Z,64.07
2019-03-11T17:00:53.360Z,63.25
2019-03-11T17:03:21.618Z,64.46
2019-03-11T17:05:49.647Z,63.40
2019-03-11T17:08:17.738Z,61.74
2019-03-11T17:10:45.858Z,62.55
2019-03-11T17:13:13.991Z,61.13
2019-03-11T17:15:42.167Z,59.18
2019-03-11T17:18:10.139Z,56.78
2019-03-11T17:20:38.520Z,57.29
2019-03-11T17:23:06.852Z,55.17
2019-03-11T17:25:35.871Z,55.42
2019-03-11T17:28:04.115Z,54.98
2019-03-11T17:30:32.239Z,54.69
2019-03-11T17:33:00.417Z,54.48
2019-03-11T17:35:28.451Z,55.04
2019-03-11T17:37:56.634Z,55.06
2019-03-11T17:40:24.987Z,54.50
2019-03-11T17:42:54.511Z,54.95
2019-03-11T17:45:22.774Z,54.75
2019-03-11T17:47:51.042Z,54.07
2019-03-11T17:50:19.168Z,54.04
2019-03-11T17:52:47.181Z,53.96
2019-03-11T17:55:15.337Z,53.63
2019-03-11T17:57:44.323Z,55.83
2019-03-11T18:00:17.915Z,53.88
2019-03-11T18:02:46.008Z,53.76
2019-03-11T18:05:14.534Z,53.81
2019-03-11T18:07:42.768Z,53.78
2019-03-11T18:10:10.855Z,53.22
2019-03-11T18:12:39.234Z,53.47
2019-03-11T18:15:07.584Z,54.33
2019-03-11T18:17:35.607Z,53.59
2019-03-11T18:20:04.230Z,52.98
2019-03-11T18:22:32.438Z,53.08
2019-03-11T18:25:00.601Z,53.48
2019-03-11T18:27:28.827Z,53.13
2019-03-11T18:29:56.940Z,52.93
2019-03-11T18:32:24.944Z,53.33
2019-03-11T18:34:52.987Z,53.22
2019-03-11T18:37:21.140Z,54.06
2019-03-11T18:39:49.388Z,53.50
2019-03-11T18:42:25.475Z,53.59
2019-03-11T18:44:47.641Z,53.37
2019-03-11T18:47:15.725Z,54.04
2019-03-11T18:49:43.811Z,54.16
2019-03-11T18:52:11.985Z,53.15
2019-03-11T18:54:40.433Z,52.42
2019-03-11T18:57:08.569Z,52.20
2019-03-11T18:59:36.722Z,52.50
2019-03-11T19:02:04.811Z,52.46
2019-03-11T19:04:32.890Z,52.11
2019-03-11T19:07:01.201Z,52.04
2019-03-11T19:09:30.927Z,52.87
2019-03-11T19:11:59.229Z,52.17
2019-03-11T19:14:27.480Z,51.83
2019-03-11T19:16:55.833Z,52.20
2019-03-11T19:19:24.457Z,52.32
2019-03-11T19:21:52.701Z,51.89
2019-03-11T19:24:20.800Z,52.07
2019-03-11T19:26:50.669Z,51.63
2019-03-11T19:29:18.672Z,51.70
2019-03-11T19:31:48.481Z,51.86
2019-03-11T19:34:16.663Z,52.18
2019-03-11T19:36:44.936Z,52.60
2019-03-11T19:39:16.786Z,52.62
2019-03-11T19:41:45.042Z,52.35
2019-03-11T19:44:12.990Z,51.91
2019-03-11T19:46:41.109Z,52.14
2019-03-11T19:49:09.188Z,52.05
2019-03-11T19:51:37.892Z,52.21
2019-03-11T19:54:06.180Z,52.59
2019-03-11T19:56:34.145Z,52.38
2019-03-11T19:59:02.441Z,52.32
2019-03-11T20:01:30.616Z,52.40
2019-03-11T20:03:59.040Z,52.66
2019-03-11T20:06:27.466Z,52.58
2019-03-11T20:08:55.453Z,52.28
2019-03-11T20:11:25.160Z,52.70
2019-03-11T20:13:56.469Z,52.63
2019-03-11T20:16:26.157Z,52.12
2019-03-11T20:18:55.472Z,52.22
2019-03-11T20:21:23.592Z,52.69
2019-03-11T20:23:51.730Z,52.25
2019-03-11T20:26:20.645Z,52.22
2019-03-11T20:28:48.972Z,51.49
2019-03-11T20:31:17.222Z,51.99
2019-03-11T20:33:45.874Z,51.92
2019-03-11T20:36:20.609Z,51.67
2019-03-11T20:38:44.151Z,51.64
2019-03-11T20:41:12.935Z,51.99
2019-03-11T20:43:42.605Z,52.54
2019-03-11T20:46:11.220Z,52.48
2019-03-11T20:48:39.369Z,52.79
2019-03-11T20:51:09.031Z,52.68
2019-03-11T20:53:37.034Z,52.51
2019-03-11T20:56:05.152Z,52.54
2019-03-11T20:58:33.611Z,52.35
2019-03-11T21:01:02.845Z,52.25
2019-03-11T21:03:33.018Z,52.11
2019-03-11T21:06:02.293Z,52.49
2019-03-11T21:08:32.292Z,52.45
2019-03-11T21:11:01.545Z,52.67
2019-03-11T21:13:29.463Z,52.46
2019-03-11T21:15:58.073Z,52.99
2019-03-11T21:18:26.334Z,53.04
2019-03-11T21:21:04.123Z,53.05
2019-03-11T21:23:26.192Z,53.20
2019-03-11T21:25:56.694Z,52.75
2019-03-11T21:28:25.598Z,52.90
2019-03-11T21:30:54.492Z,52.88
2019-03-11T21:33:24.924Z,53.38
2019-03-11T21:35:53.546Z,53.52
2019-03-11T21:38:22.180Z,53.28
2019-03-11T21:40:50.362Z,53.96
2019-03-11T21:43:18.654Z,53.73
2019-03-11T21:45:46.973Z,53.76
2019-03-11T21:48:15.354Z,53.38
2019-03-11T21:50:44.906Z,53.53
2019-03-11T21:53:13.151Z,53.52
2019-03-11T21:55:41.304Z,53.49
2019-03-11T21:58:13.500Z,53.24
2019-03-11T22:00:44.018Z,53.20
2019-03-11T22:03:13.248Z,53.20
2019-03-11T22:05:42.322Z,53.40
2019-03-11T22:08:10.364Z,53.84
2019-03-11T22:10:38.356Z,54.09
2019-03-11T22:13:06.531Z,54.39
2019-03-11T22:15:34.587Z,54.31
2019-03-11T22:18:02.934Z,54.54
2019-03-11T22:20:31.448Z,54.75
2019-03-11T22:22:59.553Z,55.32
2019-03-11T22:25:27.526Z,55.53
2019-03-11T22:27:57.616Z,55.89
2019-03-11T22:30:26.036Z,56.14
2019-03-11T22:32:54.065Z,56.36
2019-03-11T22:35:23.601Z,56.53
2019-03-11T22:37:51.807Z,56.51
2019-03-11T22:40:20.916Z,56.82
2019-03-11T22:42:49.203Z,56.91
2019-03-11T22:45:20.332Z,56.89
2019-03-11T22:47:49.342Z,57.21
2019-03-11T22:50:18.148Z,57.14
2019-03-11T22:52:47.403Z,57.36
2019-03-11T22:55:15.518Z,57.44
2019-03-11T22:57:43.873Z,57.77
2019-03-11T23:00:31.671Z,57.80
2019-03-11T23:03:01.549Z,57.75
2019-03-11T23:05:30.111Z,58.03
2019-03-11T23:07:59.607Z,58.25
2019-03-11T23:10:28.319Z,58.49
2019-03-11T23:12:56.491Z,59.07
2019-03-11T23:15:24.911Z,59.18
2019-03-11T23:17:53.024Z,58.85
2019-03-11T23:20:21.386Z,59.00
2019-03-11T23:22:49.638Z,59.66
2019-03-11T23:25:17.803Z,59.29
2019-03-11T23:27:46.940Z,61.04
2019-03-11T23:30:16.746Z,59.20
2019-03-11T23:32:45.235Z,59.86
2019-03-11T23:35:13.354Z,60.55
2019-03-11T23:37:41.600Z,60.35
2019-03-11T23:40:09.855Z,60.49
2019-03-11T23:42:38.040Z,59.63
2019-03-11T23:45:06.063Z,59.72
2019-03-11T23:47:34.212Z,60.26
2019-03-11T23:50:02.506Z,59.76
2019-03-11T23:52:32.906Z,59.55
2019-03-11T23:55:02.231Z,59.99
2019-03-11T23:57:31.507Z,59.83
